This is the latest recevied weather packets stored in our database for station/object W8KHW. If no packets are shown the sender has not sent any weather packets the latest 10 day(s).
| Time | Temp. | Humidity | Pressure | Rain* | Wind** | Luminosity | Snow |
|---|---|---|---|---|---|---|---|
| 1778157062 | 8.89° C | 68% | 1015.4 hPa | 0 mm | - | - | - |
| 1778156562 | 8.33° C | 71% | 1015.2 hPa | 0 mm | - | - | - |
| 1778156062 | 8.33° C | 72% | 1015.2 hPa | 0 mm | - | - | - |
| 1778155562 | 8.33° C | 75% | 1015.1 hPa | 0 mm | - | - | - |
| 1778155061 | 7.78° C | 73% | 1015 hPa | 0 mm | - | - | - |
| 1778154561 | 7.78° C | 77% | 1015.2 hPa | 0 mm | - | - | - |
| 1778154061 | 6.67° C | 79% | 1015.3 hPa | 0 mm | - | - | - |
| 1778153561 | 5° C | 92% | 1015.2 hPa | 0 mm | - | - | - |
| 1778153060 | 4.44° C | 98% | 1015.2 hPa | 0 mm | - | - | - |
| 1778152560 | 3.89° C | 98% | 1015 hPa | 0 mm | - | - | - |
| 1778152060 | 3.33° C | 98% | 1014.8 hPa | 0 mm | - | - | - |
| 1778151560 | 3.33° C | 98% | 1014.8 hPa | 0 mm | - | - | - |
| 1778151060 | 3.33° C | 98% | 1014.7 hPa | 0 mm | - | - | - |
| 1778150559 | 3.33° C | 98% | 1014.6 hPa | 0 mm | - | - | - |
| 1778150059 | 3.33° C | 98% | 1014.7 hPa | 0 mm | - | - | - |
| 1778149559 | 3.33° C | 98% | 1014.7 hPa | 0 mm | - | - | - |
| 1778149059 | 3.33° C | 98% | 1014.5 hPa | 0 mm | - | - | - |
| 1778148559 | 3.33° C | 98% | 1014.6 hPa | 0 mm | - | - | - |
| 1778148059 | 3.33° C | 98% | 1014.5 hPa | 0 mm | - | - | - |
| 1778147558 | 2.78° C | 98% | 1014.2 hPa | 0 mm | - | - | - |
| 1778147058 | 3.33° C | 98% | 1014.1 hPa | 0 mm | - | - | - |
| 1778146558 | 3.33° C | 98% | 1014.3 hPa | 0 mm | - | - | - |
| 1778146058 | 3.33° C | 98% | 1014.4 hPa | 0 mm | - | - | - |
| 1778145557 | 3.33° C | 98% | 1014.1 hPa | 0 mm | - | - | - |
| 1778145057 | 3.33° C | 98% | 1014.3 hPa | 0 mm | - | - | - |
* Rain latest hour (hover to see other rain measurements)
** Current wind speed in m/s (hover to see current wind gust speed)